KEVW/EVW METAR and TAF weather

Enter ICAO airport designator
Station Type Date Time Source
KEVW METAR 2022/06/28 23:53 UTC NOAA

KEVW 282353Z AUTO 21012KT 10SM CLR 28/02 A3029 RMK AO2 PK WND 21037/2307 SLP157 T02830022 10300 20256 58011


Station Type Date Time Source
KEVW Decoded METAR 2022/06/28 23:53 UTC NOAA

EVANSTON-UINTA COUNTY FIELD, WY, United States (KEVW) 41-16N 111-02W 2177M
Jun 28, 2022 - 07:53 PM EDT / 2022.06.28 2353 UTC
Wind: from the SSW (210 degrees) at 14 MPH (12 KT):0
Visibility: 10 mile(s):0
Sky conditions: clear
Temperature: 82.9 F (28.3 C)
Dew Point: 36.0 F (2.2 C)
Relative Humidity: 18%
Pressure (altimeter): 30.29 in. Hg (1025 hPa)
Pressure tendency: 0.03 inches (1.1 hPa) lower than three hours ago
ob: KEVW 282353Z AUTO 21012KT 10SM CLR 28/02 A3029 RMK AO2 PK WND 21037/2307 SLP157 T02830022 10300 20256 58011
cycle: 0

Station Type Date Time Source
KEVW TAF 2022/06/28 23:42 UTC NOAA

TAF KEVW 282238Z 2823/2918 21014G28KT P6SM VCTS FEW090CB SCT120
FM282330 23014G24KT P6SM SCT090 SCT120
FM290300 21010KT P6SM SCT090 BKN120
FM291700 24015G27KT P6SM SCT100 BKN130

Example: see airport list